createdAt,value
2023-12-09T00:02:19.413Z,56.23
2023-12-09T00:04:49.440Z,58.60
2023-12-09T00:07:19.639Z,59.33
2023-12-09T00:09:50.038Z,64.75
2023-12-09T00:12:20.328Z,61.51
2023-12-09T00:14:50.151Z,63.17
2023-12-09T00:17:20.317Z,63.23
2023-12-09T00:19:50.300Z,64.07
2023-12-09T00:22:20.224Z,68.13
2023-12-09T00:24:50.239Z,65.97
2023-12-09T00:27:20.393Z,68.70
2023-12-09T00:29:50.552Z,64.89
2023-12-09T00:32:20.924Z,70.26
2023-12-09T00:34:51.043Z,65.62
2023-12-09T00:37:20.935Z,66.53
2023-12-09T00:39:50.900Z,66.86
2023-12-09T00:42:20.789Z,66.14
2023-12-09T00:44:50.962Z,66.02
2023-12-09T00:47:21.046Z,68.91
2023-12-09T00:49:50.942Z,67.92
2023-12-09T00:52:21.093Z,68.31
2023-12-09T00:54:51.139Z,67.34
2023-12-09T00:57:23.017Z,69.43
2023-12-09T00:59:53.305Z,73.11
2023-12-09T01:02:23.300Z,69.26
2023-12-09T01:04:53.430Z,69.81
2023-12-09T01:07:23.385Z,68.99
2023-12-09T01:09:53.754Z,72.59
2023-12-09T01:12:24.104Z,69.17
2023-12-09T01:14:53.905Z,70.82
2023-12-09T01:17:24.317Z,70.45
2023-12-09T01:19:54.346Z,69.05
2023-12-09T01:22:24.960Z,70.93
2023-12-09T01:24:55.120Z,70.49
2023-12-09T01:27:25.082Z,74.91
2023-12-09T01:29:55.128Z,70.53
2023-12-09T01:32:25.581Z,75.57
2023-12-09T01:34:55.779Z,70.05
2023-12-09T01:37:25.726Z,73.34
2023-12-09T01:39:56.042Z,71.34
2023-12-09T01:42:26.210Z,72.15
2023-12-09T01:44:56.583Z,70.37
2023-12-09T01:47:26.787Z,73.41
2023-12-09T01:49:56.975Z,73.00
2023-12-09T01:52:27.970Z,70.81
2023-12-09T01:54:58.572Z,73.97
2023-12-09T01:57:29.908Z,71.53
2023-12-09T02:00:00.455Z,69.73
2023-12-09T02:02:30.917Z,68.46
2023-12-09T02:05:03.689Z,68.19
2023-12-09T02:07:36.007Z,67.76
2023-12-09T02:10:08.230Z,67.42
2023-12-09T02:12:50.176Z,67.84
2023-12-09T02:15:24.758Z,67.31
2023-12-09T02:17:55.072Z,67.53
2023-12-09T02:20:24.997Z,67.03
2023-12-09T02:23:14.380Z,67.74
2023-12-09T02:25:44.664Z,67.15
2023-12-09T02:28:23.114Z,67.28
2023-12-09T02:31:14.043Z,66.97
2023-12-09T02:33:47.550Z,67.12
2023-12-09T02:36:24.061Z,67.30
2023-12-09T02:38:55.796Z,67.19
2023-12-09T02:41:26.657Z,67.29
2023-12-09T02:43:58.296Z,66.92
2023-12-09T02:46:28.461Z,67.17
2023-12-09T02:49:01.338Z,67.04
2023-12-09T02:51:31.494Z,67.29
2023-12-09T02:54:01.775Z,66.80
2023-12-09T02:56:32.115Z,67.22
2023-12-09T02:59:02.822Z,67.31
2023-12-09T03:01:32.878Z,66.95
2023-12-09T03:04:03.765Z,67.42
2023-12-09T03:06:33.807Z,66.75
2023-12-09T03:09:03.861Z,67.03
2023-12-09T03:11:34.306Z,72.41
2023-12-09T03:14:04.439Z,73.18
2023-12-09T03:16:34.353Z,72.78
2023-12-09T03:19:04.401Z,73.72
2023-12-09T03:21:34.453Z,74.04
2023-12-09T03:24:04.792Z,73.83
2023-12-09T03:26:35.134Z,73.48
2023-12-09T03:29:05.110Z,73.14
2023-12-09T03:31:35.161Z,73.48
2023-12-09T03:34:05.078Z,73.33
2023-12-09T03:36:35.337Z,72.82
2023-12-09T03:39:05.953Z,73.29
2023-12-09T03:41:36.423Z,72.42
2023-12-09T03:44:06.761Z,71.58
2023-12-09T03:46:36.772Z,73.79
2023-12-09T03:49:06.847Z,73.80
2023-12-09T03:51:37.290Z,73.86
2023-12-09T03:54:07.734Z,72.80
2023-12-09T03:56:37.481Z,73.03
2023-12-09T03:59:08.028Z,74.12
2023-12-09T04:01:38.028Z,74.26
2023-12-09T04:04:07.969Z,74.57
2023-12-09T04:06:40.361Z,73.66
2023-12-09T04:09:13.493Z,74.07
2023-12-09T04:11:45.877Z,74.61
2023-12-09T04:14:16.888Z,74.49
2023-12-09T04:16:47.255Z,74.54
2023-12-09T04:19:18.497Z,74.50
2023-12-09T04:21:48.799Z,74.24
2023-12-09T04:24:19.556Z,74.17
2023-12-09T04:26:49.585Z,74.52
2023-12-09T04:29:19.751Z,74.51
2023-12-09T04:31:49.535Z,74.78
2023-12-09T04:34:19.749Z,75.14
2023-12-09T04:36:49.645Z,75.43
2023-12-09T04:39:20.341Z,75.19
2023-12-09T04:41:50.425Z,71.27
2023-12-09T04:44:20.310Z,70.61
2023-12-09T04:46:50.130Z,70.47
2023-12-09T04:49:20.509Z,69.98
2023-12-09T04:51:50.514Z,70.07
2023-12-09T04:54:20.830Z,69.16
2023-12-09T04:56:50.588Z,69.25
2023-12-09T04:59:20.790Z,69.17
2023-12-09T05:01:50.660Z,68.90
2023-12-09T05:04:21.913Z,68.87
2023-12-09T05:06:52.210Z,68.59
2023-12-09T05:09:24.463Z,68.69
2023-12-09T05:11:55.571Z,69.07
2023-12-09T05:14:25.595Z,69.83
2023-12-09T05:16:55.458Z,70.84
2023-12-09T05:19:25.720Z,71.27
2023-12-09T05:21:55.633Z,71.85
2023-12-09T05:24:25.609Z,71.09
2023-12-09T05:26:55.689Z,71.78
2023-12-09T05:29:26.079Z,71.04
2023-12-09T05:31:56.138Z,69.49
2023-12-09T05:34:26.293Z,69.29
2023-12-09T05:36:56.265Z,69.07
2023-12-09T05:39:26.435Z,68.89
2023-12-09T05:41:56.401Z,68.66
2023-12-09T05:44:26.401Z,68.53
2023-12-09T05:46:56.551Z,68.31
2023-12-09T05:49:26.934Z,68.24
2023-12-09T05:51:57.119Z,68.34
2023-12-09T05:54:26.899Z,68.09
2023-12-09T05:56:57.091Z,68.13
2023-12-09T05:59:27.093Z,68.01
2023-12-09T06:01:59.931Z,67.98
2023-12-09T06:04:30.415Z,67.87
2023-12-09T06:07:00.566Z,67.61
2023-12-09T06:09:30.804Z,67.80
2023-12-09T06:12:01.190Z,67.65
2023-12-09T06:14:31.359Z,67.67
2023-12-09T06:17:01.384Z,67.75
2023-12-09T06:19:31.435Z,67.68
2023-12-09T06:22:01.674Z,67.56
2023-12-09T06:24:32.307Z,67.37
2023-12-09T06:27:02.341Z,67.44
2023-12-09T06:29:32.370Z,67.25
2023-12-09T06:32:02.297Z,67.23
2023-12-09T06:34:32.427Z,67.24
2023-12-09T06:37:02.509Z,67.02
2023-12-09T06:39:32.668Z,67.10
2023-12-09T06:42:02.660Z,67.31
2023-12-09T06:44:32.558Z,67.22
2023-12-09T06:47:02.741Z,66.90
2023-12-09T06:49:32.992Z,66.69
2023-12-09T06:52:03.603Z,66.64
2023-12-09T06:54:33.293Z,66.95
2023-12-09T06:57:03.538Z,66.64
2023-12-09T06:59:33.460Z,66.64
2023-12-09T07:02:03.572Z,66.64
2023-12-09T07:04:35.385Z,66.37
2023-12-09T07:07:05.699Z,66.48
2023-12-09T07:09:35.454Z,66.40
2023-12-09T07:12:06.829Z,66.09
2023-12-09T07:14:36.838Z,66.40
2023-12-09T07:17:06.792Z,66.31
2023-12-09T07:19:37.083Z,65.93
2023-12-09T07:22:07.374Z,65.92
2023-12-09T07:24:37.465Z,65.59
2023-12-09T07:27:07.456Z,65.79
2023-12-09T07:29:37.424Z,65.69
2023-12-09T07:32:07.923Z,65.53
2023-12-09T07:34:38.212Z,65.89
2023-12-09T07:37:08.154Z,65.70
2023-12-09T07:39:38.171Z,65.36
2023-12-09T07:42:08.328Z,65.42
2023-12-09T07:44:39.065Z,65.29
2023-12-09T07:47:09.445Z,65.26
2023-12-09T07:49:39.269Z,65.42
2023-12-09T07:52:09.448Z,65.42
2023-12-09T07:54:39.236Z,65.31
2023-12-09T07:57:09.462Z,65.46
2023-12-09T07:59:39.361Z,65.05
2023-12-09T08:02:09.487Z,65.21
2023-12-09T08:04:40.799Z,65.25
2023-12-09T08:07:10.939Z,65.21
2023-12-09T08:09:40.666Z,65.25
2023-12-09T08:12:11.651Z,65.19
2023-12-09T08:14:41.784Z,65.24
2023-12-09T08:17:21.678Z,66.06
2023-12-09T08:19:56.254Z,65.69
2023-12-09T08:22:26.918Z,65.74
2023-12-09T08:24:57.522Z,65.47
2023-12-09T08:27:27.568Z,65.27
2023-12-09T08:29:57.746Z,65.35
2023-12-09T08:32:28.135Z,65.08
2023-12-09T08:35:06.995Z,64.54
2023-12-09T08:37:42.912Z,64.31
2023-12-09T08:40:16.488Z,64.26
2023-12-09T08:42:47.909Z,64.23
2023-12-09T08:45:19.117Z,65.01
2023-12-09T08:47:49.427Z,65.46
2023-12-09T08:50:23.248Z,65.19
2023-12-09T08:52:55.562Z,65.45
2023-12-09T08:55:25.772Z,66.00
2023-12-09T08:57:55.766Z,67.28
2023-12-09T09:00:28.189Z,67.45
2023-12-09T09:02:58.376Z,67.12
2023-12-09T09:05:28.636Z,66.19
2023-12-09T09:07:58.677Z,65.24
2023-12-09T09:10:28.653Z,66.08
2023-12-09T09:12:59.298Z,66.83
2023-12-09T09:15:29.505Z,67.02
2023-12-09T09:17:59.391Z,66.79
2023-12-09T09:20:29.633Z,66.93
2023-12-09T09:22:59.355Z,66.79
2023-12-09T09:25:29.645Z,67.10
2023-12-09T09:27:59.416Z,66.94
2023-12-09T09:30:29.516Z,66.76
2023-12-09T09:32:59.419Z,67.71
2023-12-09T09:35:29.573Z,68.06
2023-12-09T09:37:59.339Z,67.52
2023-12-09T09:40:29.486Z,67.49
2023-12-09T09:43:02.393Z,68.21
2023-12-09T09:45:33.081Z,67.99
2023-12-09T09:48:08.092Z,68.80
2023-12-09T09:50:45.843Z,68.78
2023-12-09T09:53:22.777Z,68.96
2023-12-09T09:55:54.313Z,69.23
2023-12-09T09:58:24.258Z,67.78
2023-12-09T10:00:58.501Z,67.94
2023-12-09T10:03:28.598Z,68.00
2023-12-09T10:06:00.067Z,67.51
2023-12-09T10:08:31.460Z,67.94
2023-12-09T10:11:01.871Z,67.33
2023-12-09T10:13:32.017Z,66.72
2023-12-09T10:16:03.632Z,66.44
2023-12-09T10:18:33.670Z,66.67
2023-12-09T10:21:03.649Z,66.37
2023-12-09T10:23:33.771Z,66.46
2023-12-09T10:26:04.886Z,66.50
2023-12-09T10:28:36.077Z,66.76
2023-12-09T10:31:06.623Z,67.22
2023-12-09T10:33:37.313Z,66.94
2023-12-09T10:36:09.613Z,67.40
2023-12-09T10:38:45.777Z,67.05
2023-12-09T10:41:18.243Z,67.66
2023-12-09T10:43:48.572Z,67.35
2023-12-09T10:46:18.410Z,67.54
2023-12-09T10:48:48.472Z,67.65
2023-12-09T10:51:18.567Z,68.06
2023-12-09T10:53:48.614Z,67.91
2023-12-09T10:56:18.803Z,68.34
2023-12-09T10:58:51.079Z,68.33
2023-12-09T11:01:22.076Z,68.01
2023-12-09T11:03:52.195Z,68.13
2023-12-09T11:06:23.525Z,67.86
2023-12-09T11:08:54.553Z,68.30
2023-12-09T11:11:24.933Z,68.17
2023-12-09T11:14:00.648Z,68.24
2023-12-09T11:16:31.808Z,68.41
2023-12-09T11:19:02.423Z,68.25
2023-12-09T11:21:32.959Z,68.42
2023-12-09T11:24:02.806Z,68.65
2023-12-09T11:26:37.600Z,68.58
2023-12-09T11:29:08.517Z,68.46
2023-12-09T11:31:51.458Z,68.10
2023-12-09T11:34:23.440Z,68.13
2023-12-09T11:36:54.975Z,68.74
2023-12-09T11:39:26.131Z,68.30
2023-12-09T11:41:57.068Z,68.61
2023-12-09T11:44:27.620Z,68.86
2023-12-09T11:46:58.134Z,68.59
2023-12-09T11:49:29.314Z,69.30
2023-12-09T11:52:00.186Z,68.52
2023-12-09T11:54:30.286Z,68.48
2023-12-09T11:57:00.936Z,68.91
2023-12-09T11:59:30.994Z,69.07
2023-12-09T12:02:01.644Z,69.01
2023-12-09T12:04:38.296Z,69.36
2023-12-09T12:07:09.363Z,69.00
2023-12-09T12:09:41.019Z,69.23
2023-12-09T12:12:11.313Z,70.56
2023-12-09T12:14:41.845Z,69.75
2023-12-09T12:17:14.240Z,69.33
2023-12-09T12:19:46.868Z,69.58
2023-12-09T12:22:17.286Z,70.20
2023-12-09T12:24:47.849Z,69.80
2023-12-09T12:27:18.322Z,70.32
2023-12-09T12:29:49.450Z,70.02
2023-12-09T12:32:20.136Z,71.42
2023-12-09T12:34:50.724Z,70.52
2023-12-09T12:37:21.306Z,70.08
2023-12-09T12:39:51.326Z,71.00
2023-12-09T12:42:21.717Z,70.26
2023-12-09T12:44:51.890Z,70.44
2023-12-09T12:47:21.789Z,70.33
2023-12-09T12:49:51.994Z,70.09
2023-12-09T12:52:22.265Z,70.41
2023-12-09T12:54:52.511Z,70.39
2023-12-09T12:57:22.531Z,70.69
2023-12-09T12:59:53.855Z,70.16
2023-12-09T13:02:25.767Z,70.99
2023-12-09T13:04:56.110Z,70.44
2023-12-09T13:07:26.071Z,70.46
2023-12-09T13:09:56.374Z,70.79
2023-12-09T13:12:26.528Z,70.40
2023-12-09T13:14:57.379Z,70.88
2023-12-09T13:17:27.335Z,68.79
2023-12-09T13:19:57.736Z,68.37
2023-12-09T13:22:28.234Z,68.46
2023-12-09T13:24:58.540Z,68.04
2023-12-09T13:27:29.008Z,67.94
2023-12-09T13:30:01.978Z,67.63
2023-12-09T13:32:32.344Z,67.22
2023-12-09T13:35:03.305Z,67.47
2023-12-09T13:37:33.644Z,67.43
2023-12-09T13:40:04.186Z,67.03
2023-12-09T13:42:34.802Z,67.45
2023-12-09T13:45:05.159Z,67.18
2023-12-09T13:47:35.354Z,67.38
2023-12-09T13:50:06.949Z,67.49
2023-12-09T13:52:38.675Z,67.24
2023-12-09T13:55:09.825Z,67.16
2023-12-09T13:57:40.060Z,67.40
2023-12-09T14:00:10.911Z,67.15
2023-12-09T14:02:41.899Z,67.32
2023-12-09T14:05:15.998Z,67.50
2023-12-09T14:07:46.206Z,67.15
2023-12-09T14:10:16.193Z,67.26
2023-12-09T14:12:46.248Z,67.28
2023-12-09T14:15:17.108Z,67.28
2023-12-09T14:17:47.972Z,67.14
2023-12-09T14:20:18.383Z,67.28
2023-12-09T14:22:48.339Z,67.18
2023-12-09T14:25:18.589Z,67.18
2023-12-09T14:27:48.798Z,67.27
2023-12-09T14:30:19.492Z,67.41
2023-12-09T14:32:49.682Z,67.70
2023-12-09T14:35:20.304Z,67.82
2023-12-09T14:37:52.691Z,67.90
2023-12-09T14:40:22.797Z,67.75
2023-12-09T14:42:52.624Z,67.89
2023-12-09T14:45:23.135Z,68.10
2023-12-09T14:47:58.469Z,67.91
2023-12-09T14:50:35.004Z,67.94
2023-12-09T14:53:05.650Z,68.52
2023-12-09T14:55:36.792Z,68.84
2023-12-09T14:58:07.006Z,68.97
2023-12-09T15:00:37.546Z,69.33
2023-12-09T15:03:07.732Z,69.33
2023-12-09T15:05:38.553Z,69.10
2023-12-09T15:08:09.669Z,69.52
2023-12-09T15:10:40.173Z,69.44
2023-12-09T15:13:09.942Z,69.62
2023-12-09T15:15:40.721Z,69.55
2023-12-09T15:18:11.409Z,69.68
2023-12-09T15:20:41.679Z,69.16
2023-12-09T15:23:12.013Z,69.44
2023-12-09T15:25:42.172Z,69.06
2023-12-09T15:28:12.469Z,68.83
2023-12-09T15:30:42.716Z,68.86
2023-12-09T15:33:13.056Z,70.08
2023-12-09T15:35:43.583Z,69.10
2023-12-09T15:38:13.680Z,68.28
2023-12-09T15:40:43.904Z,66.68
2023-12-09T15:43:14.576Z,67.17
2023-12-09T15:45:44.903Z,65.11
2023-12-09T15:48:15.239Z,66.14
2023-12-09T15:50:45.475Z,65.33
2023-12-09T15:53:15.431Z,64.59
2023-12-09T15:55:46.123Z,63.71
2023-12-09T15:58:17.036Z,63.45
2023-12-09T16:00:50.337Z,63.22
2023-12-09T16:03:20.517Z,62.88
2023-12-09T16:05:50.655Z,62.27
2023-12-09T16:08:24.156Z,62.22
2023-12-09T16:10:54.399Z,60.07
2023-12-09T16:13:25.993Z,61.67
2023-12-09T16:15:56.275Z,59.79
2023-12-09T16:18:31.341Z,61.46
2023-12-09T16:21:05.363Z,60.99
2023-12-09T16:23:35.624Z,60.13
2023-12-09T16:26:06.631Z,60.15
2023-12-09T16:28:36.663Z,60.05
2023-12-09T16:31:07.129Z,59.17
2023-12-09T16:33:37.368Z,59.09
2023-12-09T16:36:07.718Z,59.13
2023-12-09T16:38:37.821Z,58.53
2023-12-09T16:41:08.760Z,58.31
2023-12-09T16:43:39.651Z,58.39
2023-12-09T16:46:10.253Z,58.50
2023-12-09T16:48:40.420Z,57.72
2023-12-09T16:51:10.933Z,57.56
2023-12-09T16:53:40.961Z,57.69
2023-12-09T16:56:11.498Z,57.31
2023-12-09T16:58:41.914Z,57.41
2023-12-09T17:01:12.218Z,56.83
2023-12-09T17:03:42.109Z,56.72
2023-12-09T17:06:12.394Z,56.59
2023-12-09T17:08:42.400Z,56.30
2023-12-09T17:11:12.588Z,56.40
2023-12-09T17:13:42.656Z,56.35
2023-12-09T17:16:14.815Z,55.88
2023-12-09T17:18:46.078Z,55.69
2023-12-09T17:21:16.332Z,56.02
2023-12-09T17:23:48.926Z,55.66
2023-12-09T17:26:19.211Z,55.77
2023-12-09T17:28:49.352Z,54.82
2023-12-09T17:31:19.423Z,54.85
2023-12-09T17:33:49.654Z,54.97
2023-12-09T17:36:20.146Z,54.55
2023-12-09T17:38:50.254Z,54.50
2023-12-09T17:41:22.464Z,54.37
2023-12-09T17:43:52.264Z,50.45
2023-12-09T17:46:22.153Z,54.67
2023-12-09T17:48:52.536Z,54.00
2023-12-09T17:51:23.327Z,54.35
2023-12-09T17:53:53.576Z,54.10
2023-12-09T17:56:23.826Z,54.28
2023-12-09T17:58:55.457Z,53.93
2023-12-09T18:01:26.377Z,53.77
2023-12-09T18:04:02.862Z,53.67
2023-12-09T18:06:33.305Z,53.45
2023-12-09T18:09:03.393Z,53.33
2023-12-09T18:11:33.850Z,53.61
2023-12-09T18:14:04.447Z,52.94
2023-12-09T18:16:35.214Z,52.98
2023-12-09T18:19:06.361Z,53.17
2023-12-09T18:21:37.061Z,53.25
2023-12-09T18:24:07.587Z,53.23
2023-12-09T18:26:37.504Z,52.99
2023-12-09T18:29:07.793Z,52.98
2023-12-09T18:31:37.759Z,52.97
2023-12-09T18:34:08.787Z,52.84
2023-12-09T18:36:40.039Z,52.50
2023-12-09T18:39:10.378Z,52.20
2023-12-09T18:41:40.490Z,51.92
2023-12-09T18:44:10.641Z,52.43
2023-12-09T18:46:40.456Z,51.81
2023-12-09T18:49:12.001Z,52.35
2023-12-09T18:51:42.003Z,51.81
2023-12-09T18:54:12.045Z,52.00
2023-12-09T18:56:42.091Z,52.03
2023-12-09T18:59:13.992Z,51.35
2023-12-09T19:01:45.598Z,51.40
2023-12-09T19:04:15.899Z,51.47
2023-12-09T19:06:53.791Z,51.27
2023-12-09T19:09:29.679Z,51.28
2023-12-09T19:11:59.632Z,51.16
2023-12-09T19:14:29.597Z,51.60
2023-12-09T19:17:00.245Z,50.76
2023-12-09T19:19:30.633Z,50.91
2023-12-09T19:22:00.686Z,51.27
2023-12-09T19:24:30.950Z,51.32
2023-12-09T19:27:01.446Z,50.74
2023-12-09T19:29:31.384Z,51.18
2023-12-09T19:32:01.951Z,51.21
2023-12-09T19:34:32.614Z,51.10
2023-12-09T19:37:02.762Z,50.97
2023-12-09T19:39:32.862Z,50.55
2023-12-09T19:42:03.137Z,50.90
2023-12-09T19:44:32.976Z,50.59
2023-12-09T19:47:03.413Z,51.07
2023-12-09T19:49:34.362Z,50.52
2023-12-09T19:52:05.090Z,50.34
2023-12-09T19:54:35.179Z,50.37
2023-12-09T19:57:05.616Z,50.23
2023-12-09T19:59:36.053Z,50.40
2023-12-09T20:02:06.439Z,50.68
2023-12-09T20:04:36.317Z,50.78
2023-12-09T20:07:06.841Z,50.78
2023-12-09T20:09:36.892Z,49.92
2023-12-09T20:12:07.595Z,50.46
2023-12-09T20:14:37.732Z,50.27
2023-12-09T20:17:12.318Z,49.94
2023-12-09T20:19:42.418Z,50.16
2023-12-09T20:22:13.978Z,50.37
2023-12-09T20:24:43.932Z,50.18
2023-12-09T20:27:13.946Z,49.87
2023-12-09T20:29:43.950Z,50.35
2023-12-09T20:32:13.833Z,49.50
2023-12-09T20:34:43.929Z,49.62
2023-12-09T20:37:13.839Z,49.76
2023-12-09T20:39:43.899Z,49.82
2023-12-09T20:42:14.400Z,49.61
2023-12-09T20:44:45.115Z,49.91
2023-12-09T20:47:16.251Z,49.60
2023-12-09T20:49:46.357Z,49.65
2023-12-09T20:52:16.285Z,49.87
2023-12-09T20:54:48.267Z,49.29
2023-12-09T20:57:18.576Z,49.58
2023-12-09T20:59:48.432Z,49.65
2023-12-09T21:02:18.581Z,49.19
2023-12-09T21:04:48.483Z,49.36
2023-12-09T21:07:18.881Z,49.32
2023-12-09T21:09:49.338Z,49.00
2023-12-09T21:12:19.330Z,49.02
2023-12-09T21:14:49.331Z,49.44
2023-12-09T21:17:19.936Z,49.37
2023-12-09T21:19:50.957Z,49.11
2023-12-09T21:22:21.051Z,49.00
2023-12-09T21:24:50.881Z,49.23
2023-12-09T21:27:21.379Z,48.81
2023-12-09T21:29:51.103Z,48.79
2023-12-09T21:32:21.166Z,48.95
2023-12-09T21:34:50.997Z,48.83
2023-12-09T21:37:21.189Z,49.32
2023-12-09T21:39:51.162Z,48.78
2023-12-09T21:42:21.270Z,48.82
2023-12-09T21:44:54.788Z,49.27
2023-12-09T21:47:25.636Z,48.78
2023-12-09T21:49:56.586Z,48.71
2023-12-09T21:52:28.257Z,49.01
2023-12-09T21:54:58.638Z,48.73
2023-12-09T21:57:30.616Z,48.57
2023-12-09T22:00:01.169Z,48.83
2023-12-09T22:02:34.068Z,48.79
2023-12-09T22:05:04.332Z,48.55
2023-12-09T22:07:35.011Z,48.13
2023-12-09T22:10:05.271Z,48.80
2023-12-09T22:12:37.329Z,48.28
2023-12-09T22:15:08.866Z,49.17
2023-12-09T22:17:40.873Z,49.47
2023-12-09T22:20:11.695Z,49.75
2023-12-09T22:22:48.926Z,50.13
2023-12-09T22:25:24.563Z,49.64
2023-12-09T22:27:54.531Z,49.95
2023-12-09T22:30:24.647Z,49.63
2023-12-09T22:32:54.899Z,49.28
2023-12-09T22:35:26.977Z,49.74
2023-12-09T22:37:57.172Z,49.47
2023-12-09T22:40:30.532Z,49.15
2023-12-09T22:43:01.085Z,49.31
2023-12-09T22:45:31.239Z,48.83
2023-12-09T22:48:03.070Z,49.12
2023-12-09T22:50:33.293Z,49.28
2023-12-09T22:53:03.160Z,48.53
2023-12-09T22:55:33.234Z,48.74
2023-12-09T22:58:03.017Z,48.89
2023-12-09T23:00:38.794Z,48.65
2023-12-09T23:03:09.094Z,48.45
2023-12-09T23:05:39.270Z,48.19
2023-12-09T23:08:09.740Z,49.13
2023-12-09T23:10:39.950Z,47.79
2023-12-09T23:13:10.013Z,48.64
2023-12-09T23:15:39.929Z,48.51
2023-12-09T23:18:10.589Z,48.61
2023-12-09T23:20:40.565Z,48.08
2023-12-09T23:23:10.954Z,48.80
2023-12-09T23:25:41.257Z,48.31
2023-12-09T23:28:12.132Z,48.56
2023-12-09T23:30:42.497Z,48.40
2023-12-09T23:33:13.502Z,48.20
2023-12-09T23:35:43.900Z,48.92
2023-12-09T23:38:16.748Z,48.43
2023-12-09T23:40:47.025Z,47.80
2023-12-09T23:43:16.730Z,48.97
2023-12-09T23:45:47.080Z,49.04
2023-12-09T23:48:19.301Z,48.90
2023-12-09T23:50:49.965Z,48.77
2023-12-09T23:53:20.833Z,48.88
2023-12-09T23:55:51.221Z,49.52
2023-12-09T23:58:21.652Z,50.97
